Data for 04/27/2008

Time Sea-Level Adjusted Pressure Absolute Pressure Temperature Relative Humidity Dew Point   
(mb) (inHg) (mb) (inHg) (C) (F) (%) (C) (F)
00:05 1028 30.36 857 25.31 1.6 35 63 -4.7 23.6
00:10 1028 30.36 857 25.31 1.4 34.5 65 -4.6 23.8
00:15 1028 30.36 857 25.31 1.1 33.9 65 -4.7 23.5
00:20 1028 30.36 857 25.31 1 33.8 67 -4.5 23.8
00:25 1028 30.36 857 25.31 0.9 33.6 67 -4.6 23.7
00:30 1028 30.36 857 25.31 0.8 33.4 67 -4.7 23.6
00:35 1028 30.36 857 25.31 0.9 33.6 66 -4.8 23.4
00:40 1028 30.36 857 25.31 1 33.8 65 -4.8 23.3
00:45 1028 30.36 857 25.31 1.2 34.1 62 -5.2 22.6
00:50 1028 30.36 857 25.31 1.6 35 61 -5.1 22.8
00:55 1028 30.36 857 25.31 1.8 35.2 61 -5.1 22.9
01:00 1028 30.36 857 25.31 1.7 35 61 -5 23
01:05 1028 30.36 857 25.31 1.7 35.1 61 -5.1 22.9
01:10 1028 30.36 857 25.31 1.9 35.3 60 -5.1 22.8
01:15 1028 30.36 857 25.31 1.8 35.2 60 -5.2 22.7
01:20 1028 30.36 857 25.31 1.5 34.7 61 -5.1 22.7
01:25 1028 30.36 857 25.31 1.3 34.3 63 -5 22.9
01:30 1028 30.36 857 25.31 0.7 33.2 66 -5 23
01:35 1028 30.36 857 25.31 0.3 32.6 67 -5.1 22.8
01:40 1028 30.36 857 25.31 0.4 32.7 67 -5.1 22.9
01:45 1028 30.36 857 25.31 0.5 33 66 -5 23
01:50 1028 30.36 857 25.31 0.4 32.8 66 -5.1 22.7
01:55 1028 30.36 857 25.31 0.4 32.8 66 -5.3 22.5
02:00 1028 30.36 857 25.31 0.7 33.2 65 -5.2 22.6
02:05 1028 30.36 857 25.31 0.9 33.6 63 -5.3 22.5
02:10 1028 30.36 857 25.31 0.9 33.6 63 -5.3 22.5
02:15 1028 30.36 857 25.31 0.9 33.6 63 -5.4 22.3
02:20 1028 30.36 857 25.31 0.8 33.4 63 -5.4 22.2
02:25 1028 30.36 857 25.31 0.9 33.5 62 -5.5 22
02:30 1028 30.36 857 25.31 1 33.9 62 -5.4 22.3
02:35 1028 30.36 857 25.31 1 33.8 62 -5.5 22.1
02:40 1028 30.36 857 25.31 1 33.8 62 -5.6 22
02:45 1028 30.36 857 25.31 1 33.8 62 -5.5 22
02:50 1028 30.36 857 25.31 1.2 34.2 61 -5.5 22.2
02:55 1028 30.36 857 25.31 1.1 34 61 -5.5 22.1
03:00 1028 30.36 857 25.31 1 33.8 62 -5.4 22.2
03:05 1028 30.36 857 25.31 1 33.7 62 -5.6 21.9
03:10 1028 30.36 857 25.31 0.8 33.5 63 -5.4 22.2
03:15 1028 30.36 857 25.31 0.6 33 64 -5.4 22.2
03:20 1028 30.36 857 25.31 0.4 32.8 64 -5.5 22
03:25 1028 30.36 857 25.31 0.8 33.5 62 -5.7 21.7
03:30 1028 30.36 857 25.31 1.1 34 61 -5.7 21.8
03:35 1028 30.36 857 25.31 1.2 34.2 61 -5.6 21.9
03:40 1028 30.36 857 25.31 1 33.8 61 -5.7 21.8
03:45 1028 30.36 857 25.31 0.9 33.6 62 -5.6 22
03:50 1028 30.36 857 25.31 0.8 33.5 62 -5.6 21.9
03:55 1028 30.36 857 25.31 0.9 33.5 62 -5.5 22.1
04:00 1028 30.36 857 25.31 0.6 33.1 64 -5.5 22.2
04:05 1028 30.36 857 25.31 0.4 32.7 64 -5.6 21.9
04:10 1028 30.36 857 25.31 0.3 32.6 64 -5.6 21.9
04:15 1028 30.36 857 25.31 0.3 32.5 65 -5.6 21.9
04:20 1028 30.36 857 25.31 0.5 32.9 63 -5.7 21.8
04:25 1028 30.36 857 25.31 0.5 32.8 64 -5.5 22.1
04:30 1028 30.36 857 25.31 0.3 32.6 65 -5.5 22.2
04:35 1028 30.36 857 25.31 0.2 32.3 66 -5.5 22
04:40 1028 30.36 857 25.31 0.1 32.2 66 -5.6 21.9
04:45 1028 30.36 857 25.31 -0.1 31.9 65 -5.8 21.6
04:50 1028 30.36 857 25.31 -0.1 31.8 65 -5.9 21.4
04:55 1028 30.36 857 25.31 0.1 32.3 64 -6 21.2
05:00 1027 30.33 857 25.31 0.4 32.8 64 -5.6 21.9
05:05 1028 30.36 857 25.31 0.4 32.8 64 -5.5 22
05:10 1027 30.33 857 25.31 0.3 32.5 65 -5.6 21.9
05:15 1027 30.33 857 25.31 0.2 32.4 65 -5.5 22
05:20 1027 30.33 857 25.31 0.1 32.2 65 -5.7 21.7
05:25 1027 30.33 857 25.31 0.2 32.4 65 -5.6 22
05:30 1027 30.33 857 25.31 -0.1 31.9 66 -5.6 22
05:35 1027 30.33 857 25.31 -0.3 31.5 67 -5.7 21.8
05:40 1027 30.33 857 25.31 -0.4 31.2 67 -5.7 21.7
05:45 1027 30.33 857 25.31 -0.4 31.2 68 -5.7 21.7
05:50 1027 30.33 857 25.31 -0.5 31.1 68 -5.7 21.8
05:55 1027 30.33 857 25.31 -0.5 31 68 -5.7 21.7
06:00 1027 30.33 857 25.31 -0.6 31 68 -5.7 21.7
06:05 1027 30.33 857 25.31 -0.7 30.7 69 -5.8 21.6
06:10 1027 30.33 857 25.31 -0.9 30.4 69 -5.9 21.4
06:15 1027 30.33 857 25.31 -1.2 29.9 70 -6 21.3
06:20 1028 30.36 857 25.31 -1.2 29.8 70 -6 21.2
06:25 1028 30.36 857 25.31 -1.1 30 70 -5.9 21.3
06:30 1028 30.36 857 25.31 -0.9 30.3 69 -6 21.3
06:35 1028 30.36 857 25.31 -0.7 30.7 67 -6 21.2
06:40 1028 30.36 857 25.31 -0.6 30.8 68 -5.9 21.3
06:45 1028 30.36 857 25.31 -0.7 30.7 68 -6 21.3
06:50 1028 30.36 857 25.31 -0.7 30.7 68 -5.9 21.4
06:55 1028 30.36 857 25.31 -0.6 30.9 68 -5.8 21.5
07:00 1028 30.36 857 25.31 -0.5 31.1 68 -5.7 21.8
07:05 1028 30.36 857 25.31 -0.4 31.2 68 -5.7 21.8
07:10 1028 30.36 857 25.31 -0.3 31.4 70 -5.2 22.6
07:15 1028 30.36 857 25.31 -0.3 31.5 71 -4.9 23.2
07:20 1028 30.36 857 25.31 0 32.1 71 -4.7 23.6
07:25 1028 30.36 857 25.31 0.2 32.3 71 -4.5 23.8
07:30 1028 30.36 857 25.31 0.4 32.7 68 -4.8 23.4
07:35 1028 30.36 857 25.31 0.7 33.3 66 -4.8 23.3
07:40 1028 30.36 857 25.31 0.9 33.7 67 -4.5 23.8
07:45 1028 30.36 857 25.31 1.2 34.1 67 -4.2 24.4
07:50 1028 30.36 857 25.31 1.5 34.8 66 -4.2 24.4
07:55 1028 30.36 857 25.31 1.5 34.7 66 -4.2 24.4
08:00 1028 30.36 857 25.31 1.8 35.2 64 -4.3 24.2
08:05 1028 30.36 857 25.31 1.9 35.5 61 -4.9 23.3
08:10 1028 30.36 857 25.31 2 35.5 61 -4.8 23.4
08:15 1028 30.36 857 25.31 2.2 35.9 60 -4.8 23.3
08:20 1028 30.36 857 25.31 2.5 36.5 58 -4.8 23.3
08:25 1028 30.36 857 25.31 2.9 37.2 57 -4.9 23.2
08:30 1028 30.36 857 25.31 3.2 37.8 55 -4.9 23.1
08:35 1028 30.36 857 25.31 3.5 38.4 53 -5.1 22.9
08:40 1028 30.36 857 25.31 3.8 38.8 52 -5.1 22.9
08:45 1028 30.36 857 25.31 4.1 39.3 53 -4.6 23.8
08:50 1028 30.36 857 25.31 4.5 40.1 53 -4.2 24.4
08:55 1028 30.36 857 25.31 5 41 51 -4.3 24.3
09:00 1027 30.33 857 25.31 5 41 52 -4.1 24.7
09:05 1027 30.33 857 25.31 5.4 41.7 48 -4.6 23.7
09:10 1027 30.33 857 25.31 5.5 41.8 50 -4.2 24.5
09:15 1027 30.33 857 25.31 6.1 42.9 47 -4.3 24.2
09:20 1027 30.33 857 25.31 6.8 44.3 45 -4.3 24.2
09:25 1027 30.33 857 25.31 7.2 44.9 42 -5 23
09:30 1027 30.33 856 25.28 7 44.7 42 -5 23
09:35 1027 30.33 857 25.31 7.2 45 40 -5.5 22.1
09:40 1027 30.33 857 25.31 7.1 44.9 38 -6.2 20.8
09:45 1027 30.33 856 25.28 7 44.6 40 -5.6 22
09:50 1027 30.33 856 25.28 7.4 45.2 38 -6 21.1
09:55 1027 30.33 856 25.28 6.8 44.3 39 -6.1 21
10:00 1027 30.33 856 25.28 7.6 45.7 37 -6.1 21.1
10:05 1027 30.33 856 25.28 7.7 45.9 38 -5.7 21.7
10:10 1027 30.33 856 25.28 7.7 45.8 37 -6 21.1
10:15 1027 30.33 856 25.28 7.4 45.4 39 -5.7 21.7
10:20 1027 30.33 856 25.28 7.9 46.1 38 -5.6 21.9
10:25 1027 30.33 856 25.28 8.6 47.4 36 -5.5 22.1
10:30 1027 30.33 856 25.28 8.9 47.9 34 -6 21.2
10:35 1027 30.33 856 25.28 8.7 47.7 35 -6 21.1
10:40 1027 30.33 856 25.28 8.7 47.6 33 -6.6 20.2
10:45 1027 30.33 856 25.28 8.7 47.7 34 -6.2 20.9
10:50 1027 30.33 856 25.28 9.4 49 34 -5.6 21.8
10:55 1027 30.33 856 25.28 10.4 50.7 32 -5.4 22.2
11:00 1027 30.33 856 25.28 10.9 51.6 31 -5.4 22.4
11:05 1027 30.33 856 25.28 11 51.8 29 -6.2 20.8
11:10 1027 30.33 856 25.28 9.9 49.7 28 -7.9 17.8
11:15 1027 30.33 856 25.28 10.6 51 28 -7.2 19
11:20 1027 30.33 856 25.28 12 53.5 26 -6.8 19.8
11:25 1027 30.33 856 25.28 12.4 54.4 26 -6.7 19.9
11:30 1027 30.33 856 25.28 12.2 54 26 -6.7 19.9
11:35 1027 30.33 856 25.28 12.6 54.7 25 -6.9 19.6
11:40 1027 30.33 856 25.28 12.5 54.5 24 -7.4 18.7
11:45 1026 30.3 856 25.28 12.3 54.2 25 -7.1 19.2
11:50 1026 30.3 856 25.28 12.1 53.8 27 -6.5 20.3
11:55 1026 30.3 856 25.28 12.3 54.2 25 -7 19.3
12:00 1026 30.3 856 25.28 13 55.4 24 -7.3 18.9
12:05 1026 30.3 855 25.25 13.6 56.4 21 -8.1 17.5
12:10 1026 30.3 855 25.25 13.6 56.4 23 -7.3 18.8
12:15 1026 30.3 855 25.25 13.5 56.4 23 -7.3 18.8
12:20 1026 30.3 855 25.25 13.7 56.7 24 -6.5 20.4
12:25 1026 30.3 855 25.25 14.4 57.8 22 -7.1 19.2
12:30 1026 30.3 855 25.25 14 57.1 22 -7.5 18.4
12:35 1026 30.3 855 25.25 13.7 56.7 21 -8.4 16.9
12:40 1026 30.3 855 25.25 14.5 58 19 -9 15.8
12:45 1026 30.3 855 25.25 13.9 57 19 -9 15.7
12:50 1026 30.3 855 25.25 14.2 57.6 20 -8.2 17.3
12:55 1026 30.3 855 25.25 14.9 58.8 18 -9.3 15.3
13:00 1026 30.3 855 25.25 14.8 58.6 17 -10.1 13.9
13:05 1026 30.3 855 25.25 14.4 57.9 18 -9.7 14.6
13:10 1026 30.3 855 25.25 14.2 57.6 16 -11.2 11.8
13:15 1026 30.3 855 25.25 14.7 58.4 16 -11.1 12
13:20 1025 30.27 855 25.25 15.3 59.5 15 -11.1 12.1
13:25 1025 30.27 855 25.25 15.1 59.2 15 -11.7 11
13:30 1025 30.27 854 25.22 15.5 59.9 16 -10.5 13
13:35 1025 30.27 854 25.22 16.2 61.2 14 -10.9 12.5
13:40 1025 30.27 854 25.22 16.3 61.3 15 -10.8 12.6
13:45 1025 30.27 854 25.22 16.6 61.8 14 -10.6 12.9
13:50 1025 30.27 854 25.22 16.3 61.3 14 -11.1 12
13:55 1025 30.27 854 25.22 16.4 61.5 14 -10.7 12.7
14:00 1025 30.27 854 25.22 16.6 61.9 14 -11 12.3
14:05 1025 30.27 854 25.22 15.7 60.2 14 -11.4 11.5
14:10 1025 30.27 854 25.22 16.2 61.1 14 -11.2 11.8
14:15 1025 30.27 854 25.22 16.3 61.4 14 -11.1 12
14:20 1025 30.27 854 25.22 15.9 60.6 14 -11.1 12
14:25 1025 30.27 854 25.22 16.8 62.2 15 -10.1 13.9
14:30 1025 30.27 854 25.22 17.2 63 14 -10.7 12.7
14:35 1025 30.27 854 25.22 16.7 62.1 14 -10.5 13.2
14:40 1025 30.27 854 25.22 16.7 62 14 -10.5 13.1
14:45 1024 30.24 854 25.22 16.2 61.1 15 -10.4 13.3
14:50 1024 30.24 854 25.22 15.9 60.7 16 -10.2 13.7
14:55 1024 30.24 854 25.22 16.3 61.4 15 -10.1 13.8
15:00 1024 30.24 854 25.22 16.7 62 16 -9.5 14.9
15:05 1024 30.24 853 25.19 17.1 62.8 14 -10.2 13.7
15:10 1024 30.24 853 25.19 16.7 62.1 16 -9.4 15
15:15 1024 30.24 853 25.19 17.4 63.3 14 -10.1 13.9
15:20 1024 30.24 853 25.19 17.7 63.9 14 -10.4 13.3
15:25 1024 30.24 853 25.19 17.9 64.2 14 -10 14
15:30 1024 30.24 853 25.19 18.2 64.8 13 -10.6 13
15:35 1024 30.24 853 25.19 17.2 62.9 13 -11.2 11.9
15:40 1024 30.24 853 25.19 17.5 63.4 13 -10.7 12.7
15:45 1024 30.24 853 25.19 18.8 65.8 12 -10.7 12.7
15:50 1024 30.24 853 25.19 18.7 65.6 13 -9.9 14.2
15:55 1024 30.24 853 25.19 17.4 63.4 14 -10.3 13.4
16:00 1024 30.24 853 25.19 17.6 63.7 14 -9.9 14.2
16:05 1024 30.24 853 25.19 18 64.4 14 -10.1 13.7
16:10 1023 30.21 853 25.19 17.9 64.2 14 -10.3 13.5
16:15 1023 30.21 853 25.19 16.2 61.2 14 -11 12.3
16:20 1023 30.21 853 25.19 16 60.7 15 -11 12.2
16:25 1023 30.21 852 25.16 16.9 62.3 14 -10.7 12.7
16:30 1023 30.21 852 25.16 17.4 63.2 14 -10.1 13.7
16:35 1023 30.21 852 25.16 18.2 64.8 14 -9.5 14.9
16:40 1023 30.21 852 25.16 18.4 65.1 15 -8.8 16.1
16:45 1023 30.21 852 25.16 18 64.3 14 -9.7 14.6
16:50 1023 30.21 852 25.16 17.7 63.8 15 -9.5 14.8
16:55 1023 30.21 852 25.16 17.6 63.7 14 -9.8 14.4
17:00 1023 30.21 852 25.16 17.6 63.7 15 -9.7 14.5
17:05 1023 30.21 852 25.16 18.1 64.5 14 -9.5 14.9
17:10 1023 30.21 852 25.16 18.6 65.4 14 -9.4 15.1
17:15 1023 30.21 852 25.16 18.7 65.7 14 -9.1 15.7
17:20 1023 30.21 852 25.16 17.9 64.2 15 -9.4 15
17:25 1022 30.18 852 25.16 17.4 63.2 15 -9.8 14.4
17:30 1022 30.18 852 25.16 17.7 63.8 15 -9.2 15.5
17:35 1022 30.18 852 25.16 18.3 64.9 15 -9 15.8
17:40 1022 30.18 852 25.16 18.6 65.4 15 -8.8 16.2
17:45 1022 30.18 851 25.13 18.8 65.8 14 -9 15.7
17:50 1022 30.18 851 25.13 18.9 66.1 14 -8.8 16.2
17:55 1022 30.18 851 25.13 18.3 65 15 -9 15.8
18:00 1022 30.18 851 25.13 17.4 63.2 15 -9.6 14.6
18:05 1022 30.18 851 25.13 16.5 61.7 16 -9.6 14.7
18:10 1022 30.18 851 25.13 16.5 61.7 16 -9.7 14.5
18:15 1022 30.18 851 25.13 16.9 62.4 16 -9.2 15.5
18:20 1022 30.18 851 25.13 17 62.6 15 -9.5 15
18:25 1022 30.18 851 25.13 16.6 61.8 16 -9.6 14.7
18:30 1022 30.18 851 25.13 16.1 60.9 16 -9.9 14.3
18:35 1022 30.18 851 25.13 16 60.7 16 -9.8 14.4
18:40 1022 30.18 851 25.13 16 60.7 16 -9.7 14.5
18:45 1022 30.18 851 25.13 15.8 60.4 17 -9 15.8
18:50 1022 30.18 851 25.13 15.7 60.2 16 -9.9 14.1
18:55 1022 30.18 851 25.13 15.7 60.2 17 -9.5 14.9
19:00 1022 30.18 851 25.13 15.8 60.4 17 -9.2 15.4
19:05 1022 30.18 851 25.13 15.8 60.4 18 -8.7 16.3
19:10 1022 30.18 851 25.13 15.7 60.2 17 -9.1 15.6
19:15 1022 30.18 851 25.13 15.8 60.4 16 -9.9 14.3
19:20 1021 30.15 851 25.13 15.7 60.3 17 -9.2 15.5
19:25 1021 30.15 851 25.13 15.6 60 17 -9 15.8
19:30 1021 30.15 851 25.13 15.4 59.7 18 -8.9 16
19:35 1021 30.15 851 25.13 15.3 59.6 18 -8.7 16.4
19:40 1021 30.15 851 25.13 15.3 59.5 19 -8.4 16.9
19:45 1021 30.15 851 25.13 15.2 59.4 19 -8.4 16.8
19:50 1021 30.15 851 25.13 15.1 59.2 20 -7.5 18.4
19:55 1021 30.15 850 25.1 14.9 58.8 20 -7.7 18.1
20:00 1021 30.15 850 25.1 14.8 58.6 21 -7.5 18.4
20:05 1021 30.15 850 25.1 14.7 58.4 26 -4.4 24
20:10 1021 30.15 850 25.1 14 57.3 31 -2.9 26.8
20:15 1021 30.15 850 25.1 13.2 55.7 32 -3.2 26.3
20:20 1021 30.15 850 25.1 12.5 54.4 32 -3.8 25.2
20:25 1021 30.15 850 25.1 12 53.7 32 -4 24.9
20:30 1021 30.15 850 25.1 11.7 53.1 33 -3.8 25.1
20:35 1021 30.15 850 25.1 11.2 52.1 35 -3.6 25.6
20:40 1021 30.15 850 25.1 10.8 51.5 35 -3.9 25
20:45 1021 30.15 850 25.1 10.5 50.9 37 -3.6 25.5
20:50 1021 30.15 850 25.1 10.2 50.3 36 -4.1 24.7
20:55 1021 30.15 850 25.1 10.2 50.4 37 -3.9 25
21:00 1021 30.15 850 25.1 10.1 50.1 37 -4 24.8
21:05 1021 30.15 850 25.1 9.9 49.9 37 -4 24.8
21:10 1021 30.15 850 25.1 9.8 49.6 36 -4.6 23.7
21:15 1021 30.15 850 25.1 9.6 49.3 35 -4.9 23.1
21:20 1021 30.15 850 25.1 9.5 49.1 34 -5.5 22.1
21:25 1021 30.15 850 25.1 9.5 49.1 33 -5.9 21.4
21:30 1021 30.15 850 25.1 9.6 49.2 33 -5.8 21.5
21:35 1021 30.15 850 25.1 9.7 49.4 34 -5.5 22.1
21:40 1021 30.15 850 25.1 9.7 49.4 35 -5.1 22.8
21:45 1021 30.15 850 25.1 9.3 48.8 36 -5 23.1
21:50 1021 30.15 850 25.1 9.2 48.5 35 -5.4 22.3
21:55 1021 30.15 850 25.1 9.1 48.5 36 -5.1 22.9
22:00 1021 30.15 850 25.1 8.9 48 36 -5.4 22.2
22:05 1021 30.15 850 25.1 8.8 47.9 36 -5.5 22.1
22:10 1021 30.15 850 25.1 8.7 47.6 37 -5.3 22.5
22:15 1021 30.15 850 25.1 8.6 47.4 36 -5.6 22
22:20 1021 30.15 850 25.1 8.6 47.5 36 -5.8 21.6
22:25 1021 30.15 850 25.1 8.6 47.5 36 -5.6 22
22:30 1021 30.15 850 25.1 8.6 47.5 35 -5.8 21.5
22:35 1021 30.15 850 25.1 8.7 47.6 35 -5.9 21.4
22:40 1021 30.15 850 25.1 8.7 47.6 35 -5.8 21.6
22:45 1021 30.15 850 25.1 8.6 47.4 36 -5.8 21.6
22:50 1021 30.15 850 25.1 8.5 47.2 35 -6.1 21.1
22:55 1021 30.15 850 25.1 8.5 47.3 36 -5.7 21.7
23:00 1021 30.15 850 25.1 8.3 47 37 -5.4 22.2
23:05 1021 30.15 850 25.1 8.3 46.9 36 -6 21.1
23:10 1021 30.15 850 25.1 8.3 47 36 -5.7 21.7
23:15 1021 30.15 850 25.1 8.2 46.8 36 -5.8 21.6
23:20 1021 30.15 850 25.1 8.2 46.7 35 -6.4 20.5
23:25 1021 30.15 850 25.1 8.4 47.1 35 -6 21.2
23:30 1021 30.15 850 25.1 8.4 47.1 34 -6.5 20.4
23:35 1021 30.15 850 25.1 8.6 47.4 33 -6.6 20.1
23:40 1021 30.15 850 25.1 8.7 47.7 33 -6.8 19.8
23:45 1021 30.15 850 25.1 8.8 47.9 33 -6.5 20.4
23:50 1021 30.15 850 25.1 8.7 47.6 34 -6.4 20.5
23:55 1021 30.15 850 25.1 8.5 47.3 34 -6.5 20.3
24:00 1021 30.15 850 25.1 8.4 47.2 34 -6.4 20.4